sensor_id;sensor_type;location;lat;lon;timestamp;temperature;humidity
13256;DHT22;37913;48.370;10.930;2023-03-01T00:01:09;0.80;99.90
13256;DHT22;37913;48.370;10.930;2023-03-01T00:03:36;0.80;99.90
13256;DHT22;37913;48.370;10.930;2023-03-01T00:06:05;0.90;99.90
13256;DHT22;37913;48.370;10.930;2023-03-01T00:08:32;0.80;99.90
13256;DHT22;37913;48.370;10.930;2023-03-01T00:11:01;0.80;99.90
13256;DHT22;37913;48.370;10.930;2023-03-01T00:13:28;0.80;99.90
13256;DHT22;37913;48.370;10.930;2023-03-01T00:15:55;0.90;99.90
13256;DHT22;37913;48.370;10.930;2023-03-01T00:18:23;0.90;99.90
13256;DHT22;37913;48.370;10.930;2023-03-01T00:20:50;0.80;99.90
13256;DHT22;37913;48.370;10.930;2023-03-01T00:23:19;0.80;99.90
13256;DHT22;37913;48.370;10.930;2023-03-01T00:25:46;0.80;99.90
13256;DHT22;37913;48.370;10.930;2023-03-01T00:28:13;0.80;99.90
13256;DHT22;37913;48.370;10.930;2023-03-01T00:30:40;0.80;99.90
13256;DHT22;37913;48.370;10.930;2023-03-01T00:33:08;0.80;99.90
13256;DHT22;37913;48.370;10.930;2023-03-01T00:35:35;0.80;99.90
13256;DHT22;37913;48.370;10.930;2023-03-01T00:38:03;0.80;99.90
13256;DHT22;37913;48.370;10.930;2023-03-01T00:40:33;0.90;99.90
13256;DHT22;37913;48.370;10.930;2023-03-01T00:43:00;0.90;99.90
13256;DHT22;37913;48.370;10.930;2023-03-01T00:45:28;0.90;99.90
13256;DHT22;37913;48.370;10.930;2023-03-01T00:47:56;0.90;99.90
13256;DHT22;37913;48.370;10.930;2023-03-01T00:50:23;0.90;99.90
13256;DHT22;37913;48.370;10.930;2023-03-01T00:52:53;0.80;99.90
13256;DHT22;37913;48.370;10.930;2023-03-01T00:55:20;0.80;99.90
13256;DHT22;37913;48.370;10.930;2023-03-01T00:57:48;0.80;99.90
13256;DHT22;37913;48.370;10.930;2023-03-01T01:00:16;0.80;99.90
13256;DHT22;37913;48.370;10.930;2023-03-01T01:02:43;0.80;99.90
13256;DHT22;37913;48.370;10.930;2023-03-01T01:05:10;0.80;99.90
13256;DHT22;37913;48.370;10.930;2023-03-01T01:07:38;0.80;99.90
13256;DHT22;37913;48.370;10.930;2023-03-01T01:10:06;0.80;99.90
13256;DHT22;37913;48.370;10.930;2023-03-01T01:12:33;0.80;99.90
13256;DHT22;37913;48.370;10.930;2023-03-01T01:15:02;0.80;99.90
13256;DHT22;37913;48.370;10.930;2023-03-01T01:17:29;0.80;99.90
13256;DHT22;37913;48.370;10.930;2023-03-01T01:19:55;0.80;99.90
13256;DHT22;37913;48.370;10.930;2023-03-01T01:22:22;1.10;99.90
13256;DHT22;37913;48.370;10.930;2023-03-01T01:24:49;0.90;99.90
13256;DHT22;37913;48.370;10.930;2023-03-01T01:27:16;0.80;99.90
13256;DHT22;37913;48.370;10.930;2023-03-01T01:29:43;0.90;99.90
13256;DHT22;37913;48.370;10.930;2023-03-01T01:32:11;1.40;99.90
13256;DHT22;37913;48.370;10.930;2023-03-01T01:34:38;0.90;99.90
13256;DHT22;37913;48.370;10.930;2023-03-01T01:37:05;0.80;99.90
13256;DHT22;37913;48.370;10.930;2023-03-01T01:39:33;1.80;99.90
13256;DHT22;37913;48.370;10.930;2023-03-01T01:42:00;0.80;99.90
13256;DHT22;37913;48.370;10.930;2023-03-01T01:44:28;0.80;99.90
13256;DHT22;37913;48.370;10.930;2023-03-01T01:46:58;0.80;99.90
13256;DHT22;37913;48.370;10.930;2023-03-01T01:49:31;0.80;99.90
13256;DHT22;37913;48.370;10.930;2023-03-01T01:52:08;0.70;99.90
13256;DHT22;37913;48.370;10.930;2023-03-01T01:54:41;0.80;99.90
13256;DHT22;37913;48.370;10.930;2023-03-01T01:57:12;0.70;99.90
13256;DHT22;37913;48.370;10.930;2023-03-01T01:59:44;0.60;99.90
13256;DHT22;37913;48.370;10.930;2023-03-01T02:02:13;0.70;99.90
13256;DHT22;37913;48.370;10.930;2023-03-01T02:04:41;0.60;99.90
13256;DHT22;37913;48.370;10.930;2023-03-01T02:07:14;0.60;99.90
13256;DHT22;37913;48.370;10.930;2023-03-01T02:09:42;1.50;99.90
13256;DHT22;37913;48.370;10.930;2023-03-01T02:12:10;0.60;99.90
13256;DHT22;37913;48.370;10.930;2023-03-01T02:14:37;0.60;99.90
13256;DHT22;37913;48.370;10.930;2023-03-01T02:17:04;0.60;99.90
13256;DHT22;37913;48.370;10.930;2023-03-01T02:19:43;0.60;99.90
13256;DHT22;37913;48.370;10.930;2023-03-01T02:22:18;0.60;99.90
13256;DHT22;37913;48.370;10.930;2023-03-01T02:24:55;0.50;99.90
13256;DHT22;37913;48.370;10.930;2023-03-01T02:27:31;1.10;99.90
13256;DHT22;37913;48.370;10.930;2023-03-01T02:30:01;0.50;99.90
13256;DHT22;37913;48.370;10.930;2023-03-01T02:32:28;1.30;99.90
13256;DHT22;37913;48.370;10.930;2023-03-01T02:34:55;0.50;99.90
13256;DHT22;37913;48.370;10.930;2023-03-01T02:37:24;0.50;99.90
13256;DHT22;37913;48.370;10.930;2023-03-01T02:39:57;0.60;99.90
13256;DHT22;37913;48.370;10.930;2023-03-01T02:42:28;0.50;99.90
13256;DHT22;37913;48.370;10.930;2023-03-01T02:44:57;0.50;99.90
13256;DHT22;37913;48.370;10.930;2023-03-01T02:47:25;0.60;99.90
13256;DHT22;37913;48.370;10.930;2023-03-01T02:49:52;0.50;99.90
13256;DHT22;37913;48.370;10.930;2023-03-01T02:52:30;1.30;99.90
13256;DHT22;37913;48.370;10.930;2023-03-01T02:55:03;0.60;99.90
13256;DHT22;37913;48.370;10.930;2023-03-01T02:57:39;0.40;99.90
13256;DHT22;37913;48.370;10.930;2023-03-01T03:00:08;0.40;99.90
13256;DHT22;37913;48.370;10.930;2023-03-01T03:02:38;0.40;99.90
13256;DHT22;37913;48.370;10.930;2023-03-01T03:05:08;0.40;99.90
13256;DHT22;37913;48.370;10.930;2023-03-01T03:07:37;0.30;99.90
13256;DHT22;37913;48.370;10.930;2023-03-01T03:10:06;0.30;99.90
13256;DHT22;37913;48.370;10.930;2023-03-01T03:12:33;0.30;99.90
13256;DHT22;37913;48.370;10.930;2023-03-01T03:15:00;0.30;99.90
13256;DHT22;37913;48.370;10.930;2023-03-01T03:17:34;0.30;99.90
13256;DHT22;37913;48.370;10.930;2023-03-01T03:20:03;0.20;99.90
13256;DHT22;37913;48.370;10.930;2023-03-01T03:22:30;0.20;99.90
13256;DHT22;37913;48.370;10.930;2023-03-01T03:24:59;0.20;99.90
13256;DHT22;37913;48.370;10.930;2023-03-01T03:27:27;0.10;99.90
13256;DHT22;37913;48.370;10.930;2023-03-01T03:29:54;0.20;99.90
13256;DHT22;37913;48.370;10.930;2023-03-01T03:32:21;0.20;99.90
13256;DHT22;37913;48.370;10.930;2023-03-01T03:34:48;0.20;99.90
13256;DHT22;37913;48.370;10.930;2023-03-01T03:37:17;0.60;99.90
13256;DHT22;37913;48.370;10.930;2023-03-01T03:39:58;0.20;99.90
13256;DHT22;37913;48.370;10.930;2023-03-01T03:42:26;0.20;99.90
13256;DHT22;37913;48.370;10.930;2023-03-01T03:44:53;0.10;99.90
13256;DHT22;37913;48.370;10.930;2023-03-01T03:47:20;0.20;99.90
13256;DHT22;37913;48.370;10.930;2023-03-01T03:49:47;0.20;99.90
13256;DHT22;37913;48.370;10.930;2023-03-01T03:52:13;0.20;99.90
13256;DHT22;37913;48.370;10.930;2023-03-01T03:54:42;0.10;99.90
13256;DHT22;37913;48.370;10.930;2023-03-01T03:57:09;0.10;99.90
13256;DHT22;37913;48.370;10.930;2023-03-01T03:59:36;0.10;99.90
13256;DHT22;37913;48.370;10.930;2023-03-01T04:02:04;0.10;99.90
13256;DHT22;37913;48.370;10.930;2023-03-01T04:04:31;0.20;99.90
13256;DHT22;37913;48.370;10.930;2023-03-01T04:06:58;0.20;99.90
13256;DHT22;37913;48.370;10.930;2023-03-01T04:09:25;0.10;99.90
13256;DHT22;37913;48.370;10.930;2023-03-01T04:11:53;0.10;99.90
13256;DHT22;37913;48.370;10.930;2023-03-01T04:14:20;0.10;99.90
13256;DHT22;37913;48.370;10.930;2023-03-01T04:16:47;0.10;99.90
13256;DHT22;37913;48.370;10.930;2023-03-01T04:19:14;0.10;99.90
13256;DHT22;37913;48.370;10.930;2023-03-01T04:21:41;0.10;99.90
13256;DHT22;37913;48.370;10.930;2023-03-01T04:24:08;0.10;99.90
13256;DHT22;37913;48.370;10.930;2023-03-01T04:26:35;0.10;99.90
13256;DHT22;37913;48.370;10.930;2023-03-01T04:29:03;0.10;99.90
13256;DHT22;37913;48.370;10.930;2023-03-01T04:31:30;0.10;99.90
13256;DHT22;37913;48.370;10.930;2023-03-01T04:33:57;0.10;99.90
13256;DHT22;37913;48.370;10.930;2023-03-01T04:36:26;0.00;99.90
13256;DHT22;37913;48.370;10.930;2023-03-01T04:38:54;0.00;99.90
13256;DHT22;37913;48.370;10.930;2023-03-01T04:41:23;-0.10;99.90
13256;DHT22;37913;48.370;10.930;2023-03-01T04:43:50;-0.10;99.90
13256;DHT22;37913;48.370;10.930;2023-03-01T04:46:19;-0.20;99.90
13256;DHT22;37913;48.370;10.930;2023-03-01T04:48:47;-0.20;99.90
13256;DHT22;37913;48.370;10.930;2023-03-01T04:51:14;-0.20;99.90
13256;DHT22;37913;48.370;10.930;2023-03-01T04:53:42;-0.30;99.90
13256;DHT22;37913;48.370;10.930;2023-03-01T04:56:09;-0.30;99.90
13256;DHT22;37913;48.370;10.930;2023-03-01T04:58:36;-0.40;99.90
13256;DHT22;37913;48.370;10.930;2023-03-01T05:01:08;-0.60;99.90
13256;DHT22;37913;48.370;10.930;2023-03-01T05:03:42;-0.70;99.90
13256;DHT22;37913;48.370;10.930;2023-03-01T05:06:10;-0.80;99.90
13256;DHT22;37913;48.370;10.930;2023-03-01T05:08:37;-1.00;99.90
13256;DHT22;37913;48.370;10.930;2023-03-01T05:11:05;-1.10;99.90
13256;DHT22;37913;48.370;10.930;2023-03-01T05:13:35;-1.20;99.90
13256;DHT22;37913;48.370;10.930;2023-03-01T05:16:03;-1.30;99.90
13256;DHT22;37913;48.370;10.930;2023-03-01T05:18:32;-1.40;99.90
13256;DHT22;37913;48.370;10.930;2023-03-01T05:21:04;-1.50;99.90
13256;DHT22;37913;48.370;10.930;2023-03-01T05:23:32;-1.50;99.90
13256;DHT22;37913;48.370;10.930;2023-03-01T05:26:00;-1.70;99.90
13256;DHT22;37913;48.370;10.930;2023-03-01T05:28:28;-1.80;99.90
13256;DHT22;37913;48.370;10.930;2023-03-01T05:30:55;-1.30;99.90
13256;DHT22;37913;48.370;10.930;2023-03-01T05:35:59;-2.00;99.90
13256;DHT22;37913;48.370;10.930;2023-03-01T05:38:28;-2.10;99.90
13256;DHT22;37913;48.370;10.930;2023-03-01T05:40:55;-2.10;99.90
13256;DHT22;37913;48.370;10.930;2023-03-01T05:43:22;-2.20;99.90
13256;DHT22;37913;48.370;10.930;2023-03-01T05:45:48;-2.20;99.90
13256;DHT22;37913;48.370;10.930;2023-03-01T05:48:15;-1.90;99.90
13256;DHT22;37913;48.370;10.930;2023-03-01T05:50:45;-2.10;99.90
13256;DHT22;37913;48.370;10.930;2023-03-01T05:53:14;-2.20;99.90
13256;DHT22;37913;48.370;10.930;2023-03-01T05:55:43;-1.30;99.90
13256;DHT22;37913;48.370;10.930;2023-03-01T05:58:14;-2.30;99.90
13256;DHT22;37913;48.370;10.930;2023-03-01T06:00:42;-2.30;99.90
13256;DHT22;37913;48.370;10.930;2023-03-01T06:03:10;-2.40;99.90
13256;DHT22;37913;48.370;10.930;2023-03-01T06:05:38;-2.40;99.90
13256;DHT22;37913;48.370;10.930;2023-03-01T06:08:05;-2.40;99.90
13256;DHT22;37913;48.370;10.930;2023-03-01T06:10:32;-2.40;99.90
13256;DHT22;37913;48.370;10.930;2023-03-01T06:13:00;-2.50;99.90
13256;DHT22;37913;48.370;10.930;2023-03-01T06:15:27;-2.40;99.90
13256;DHT22;37913;48.370;10.930;2023-03-01T06:17:55;-2.40;99.90
13256;DHT22;37913;48.370;10.930;2023-03-01T06:20:25;-2.40;99.90
13256;DHT22;37913;48.370;10.930;2023-03-01T06:22:52;-2.40;99.90
13256;DHT22;37913;48.370;10.930;2023-03-01T06:25:22;-2.40;99.90
13256;DHT22;37913;48.370;10.930;2023-03-01T06:27:49;-2.40;99.90
13256;DHT22;37913;48.370;10.930;2023-03-01T06:30:20;-2.10;99.90
13256;DHT22;37913;48.370;10.930;2023-03-01T06:32:49;-2.20;99.90
13256;DHT22;37913;48.370;10.930;2023-03-01T06:35:17;-2.10;99.90
13256;DHT22;37913;48.370;10.930;2023-03-01T06:37:45;-1.90;99.90
13256;DHT22;37913;48.370;10.930;2023-03-01T06:40:12;-1.70;99.90
13256;DHT22;37913;48.370;10.930;2023-03-01T06:42:41;-1.60;99.90
13256;DHT22;37913;48.370;10.930;2023-03-01T06:45:09;-1.30;99.90
13256;DHT22;37913;48.370;10.930;2023-03-01T06:47:38;-1.30;99.90
13256;DHT22;37913;48.370;10.930;2023-03-01T06:50:06;-1.10;99.90
13256;DHT22;37913;48.370;10.930;2023-03-01T06:52:33;-1.00;99.90
13256;DHT22;37913;48.370;10.930;2023-03-01T06:55:00;-0.90;99.90
13256;DHT22;37913;48.370;10.930;2023-03-01T06:57:27;-0.80;99.90
13256;DHT22;37913;48.370;10.930;2023-03-01T06:59:56;-0.70;99.90
13256;DHT22;37913;48.370;10.930;2023-03-01T07:02:23;-0.70;99.90
13256;DHT22;37913;48.370;10.930;2023-03-01T07:04:52;-0.60;99.90
13256;DHT22;37913;48.370;10.930;2023-03-01T07:07:19;-0.50;99.90
13256;DHT22;37913;48.370;10.930;2023-03-01T07:09:46;-0.30;99.90
13256;DHT22;37913;48.370;10.930;2023-03-01T07:12:13;-0.20;99.90
13256;DHT22;37913;48.370;10.930;2023-03-01T07:14:39;-0.10;99.90
13256;DHT22;37913;48.370;10.930;2023-03-01T07:17:07;-0.10;99.90
13256;DHT22;37913;48.370;10.930;2023-03-01T07:19:34;-0.10;99.90
13256;DHT22;37913;48.370;10.930;2023-03-01T07:22:03;0.00;99.90
13256;DHT22;37913;48.370;10.930;2023-03-01T07:24:34;0.00;99.90
13256;DHT22;37913;48.370;10.930;2023-03-01T07:27:01;0.30;99.90
13256;DHT22;37913;48.370;10.930;2023-03-01T07:29:28;0.10;99.90
13256;DHT22;37913;48.370;10.930;2023-03-01T07:31:55;0.30;99.90
13256;DHT22;37913;48.370;10.930;2023-03-01T07:34:25;0.50;99.90
13256;DHT22;37913;48.370;10.930;2023-03-01T07:36:52;0.50;99.90
13256;DHT22;37913;48.370;10.930;2023-03-01T07:39:20;0.50;99.90
13256;DHT22;37913;48.370;10.930;2023-03-01T07:41:48;0.50;99.90
13256;DHT22;37913;48.370;10.930;2023-03-01T07:44:15;1.10;99.90
13256;DHT22;37913;48.370;10.930;2023-03-01T07:46:43;0.60;99.90
13256;DHT22;37913;48.370;10.930;2023-03-01T07:49:10;0.90;99.90
13256;DHT22;37913;48.370;10.930;2023-03-01T07:51:37;0.70;99.90
13256;DHT22;37913;48.370;10.930;2023-03-01T07:54:04;0.70;99.90
13256;DHT22;37913;48.370;10.930;2023-03-01T07:56:32;1.00;99.90
13256;DHT22;37913;48.370;10.930;2023-03-01T07:59:00;1.20;99.90
13256;DHT22;37913;48.370;10.930;2023-03-01T08:01:27;1.40;99.90
13256;DHT22;37913;48.370;10.930;2023-03-01T08:03:53;1.30;99.90
13256;DHT22;37913;48.370;10.930;2023-03-01T08:06:20;1.10;99.90
13256;DHT22;37913;48.370;10.930;2023-03-01T08:08:47;1.20;99.90
13256;DHT22;37913;48.370;10.930;2023-03-01T08:11:14;1.30;99.90
13256;DHT22;37913;48.370;10.930;2023-03-01T08:13:43;2.20;99.90
13256;DHT22;37913;48.370;10.930;2023-03-01T08:16:11;1.40;99.90
13256;DHT22;37913;48.370;10.930;2023-03-01T08:18:39;1.40;99.90
13256;DHT22;37913;48.370;10.930;2023-03-01T08:21:07;1.30;99.90
13256;DHT22;37913;48.370;10.930;2023-03-01T08:23:34;1.40;99.90
13256;DHT22;37913;48.370;10.930;2023-03-01T08:26:06;1.50;99.90
13256;DHT22;37913;48.370;10.930;2023-03-01T08:28:33;1.70;99.90
13256;DHT22;37913;48.370;10.930;2023-03-01T08:31:02;1.70;99.90
13256;DHT22;37913;48.370;10.930;2023-03-01T08:33:29;1.70;99.90
13256;DHT22;37913;48.370;10.930;2023-03-01T08:36:03;1.70;99.90
13256;DHT22;37913;48.370;10.930;2023-03-01T08:38:30;1.80;99.90
13256;DHT22;37913;48.370;10.930;2023-03-01T08:40:59;1.90;99.90
13256;DHT22;37913;48.370;10.930;2023-03-01T08:43:27;1.70;99.90
13256;DHT22;37913;48.370;10.930;2023-03-01T08:45:54;1.70;99.90
13256;DHT22;37913;48.370;10.930;2023-03-01T08:48:22;1.40;99.90
13256;DHT22;37913;48.370;10.930;2023-03-01T08:50:49;1.40;99.90
13256;DHT22;37913;48.370;10.930;2023-03-01T08:53:16;1.60;99.90
13256;DHT22;37913;48.370;10.930;2023-03-01T08:55:44;1.80;99.90
13256;DHT22;37913;48.370;10.930;2023-03-01T08:58:11;1.70;99.90
13256;DHT22;37913;48.370;10.930;2023-03-01T09:00:38;1.90;99.90
13256;DHT22;37913;48.370;10.930;2023-03-01T09:03:05;1.80;99.90
13256;DHT22;37913;48.370;10.930;2023-03-01T09:05:34;2.00;99.90
13256;DHT22;37913;48.370;10.930;2023-03-01T09:08:02;2.50;99.90
13256;DHT22;37913;48.370;10.930;2023-03-01T09:10:29;2.60;99.90
13256;DHT22;37913;48.370;10.930;2023-03-01T09:12:56;2.50;99.90
13256;DHT22;37913;48.370;10.930;2023-03-01T09:15:23;2.50;99.90
13256;DHT22;37913;48.370;10.930;2023-03-01T09:17:50;2.20;99.90
13256;DHT22;37913;48.370;10.930;2023-03-01T09:20:17;2.50;99.90
13256;DHT22;37913;48.370;10.930;2023-03-01T09:22:45;2.80;99.90
13256;DHT22;37913;48.370;10.930;2023-03-01T09:25:12;2.70;99.90
13256;DHT22;37913;48.370;10.930;2023-03-01T09:27:40;2.70;99.90
13256;DHT22;37913;48.370;10.930;2023-03-01T09:30:08;2.60;99.90
13256;DHT22;37913;48.370;10.930;2023-03-01T09:32:37;2.60;99.90
13256;DHT22;37913;48.370;10.930;2023-03-01T09:35:08;2.90;99.90
13256;DHT22;37913;48.370;10.930;2023-03-01T09:37:36;3.00;99.90
13256;DHT22;37913;48.370;10.930;2023-03-01T09:40:10;3.20;99.90
13256;DHT22;37913;48.370;10.930;2023-03-01T09:42:54;3.90;99.90
13256;DHT22;37913;48.370;10.930;2023-03-01T09:45:28;4.00;99.90
13256;DHT22;37913;48.370;10.930;2023-03-01T09:47:56;4.60;99.90
13256;DHT22;37913;48.370;10.930;2023-03-01T09:50:27;8.00;99.90
13256;DHT22;37913;48.370;10.930;2023-03-01T09:53:01;8.70;99.90
13256;DHT22;37913;48.370;10.930;2023-03-01T09:55:34;9.90;97.40
13256;DHT22;37913;48.370;10.930;2023-03-01T09:58:18;10.50;92.70
13256;DHT22;37913;48.370;10.930;2023-03-01T10:00:48;12.50;90.60
13256;DHT22;37913;48.370;10.930;2023-03-01T10:03:20;13.50;81.00
13256;DHT22;37913;48.370;10.930;2023-03-01T10:05:55;13.40;80.00
13256;DHT22;37913;48.370;10.930;2023-03-01T10:08:30;13.10;79.60
13256;DHT22;37913;48.370;10.930;2023-03-01T10:11:03;11.50;81.60
13256;DHT22;37913;48.370;10.930;2023-03-01T10:13:37;12.70;81.30
13256;DHT22;37913;48.370;10.930;2023-03-01T10:16:13;11.70;80.40
13256;DHT22;37913;48.370;10.930;2023-03-01T10:18:45;12.30;80.00
13256;DHT22;37913;48.370;10.930;2023-03-01T10:21:15;12.70;79.30
13256;DHT22;37913;48.370;10.930;2023-03-01T10:23:43;12.90;77.90
13256;DHT22;37913;48.370;10.930;2023-03-01T10:26:22;12.20;79.20
13256;DHT22;37913;48.370;10.930;2023-03-01T10:28:59;13.20;78.90
13256;DHT22;37913;48.370;10.930;2023-03-01T10:31:38;13.80;76.10
13256;DHT22;37913;48.370;10.930;2023-03-01T10:34:13;15.20;72.70
13256;DHT22;37913;48.370;10.930;2023-03-01T10:36:42;14.90;71.80
13256;DHT22;37913;48.370;10.930;2023-03-01T10:39:15;15.20;72.00
13256;DHT22;37913;48.370;10.930;2023-03-01T10:42:03;15.80;71.20
13256;DHT22;37913;48.370;10.930;2023-03-01T10:44:41;14.60;69.00
13256;DHT22;37913;48.370;10.930;2023-03-01T10:47:15;15.30;70.10
13256;DHT22;37913;48.370;10.930;2023-03-01T10:49:52;15.30;69.80
13256;DHT22;37913;48.370;10.930;2023-03-01T10:52:22;15.10;70.00
13256;DHT22;37913;48.370;10.930;2023-03-01T10:54:55;15.50;67.90
13256;DHT22;37913;48.370;10.930;2023-03-01T10:57:36;13.90;70.80
13256;DHT22;37913;48.370;10.930;2023-03-01T11:00:20;14.30;71.00
13256;DHT22;37913;48.370;10.930;2023-03-01T11:02:49;15.70;69.60
13256;DHT22;37913;48.370;10.930;2023-03-01T11:05:22;15.70;69.10
13256;DHT22;37913;48.370;10.930;2023-03-01T11:07:52;15.60;67.70
13256;DHT22;37913;48.370;10.930;2023-03-01T11:10:22;14.00;69.00
13256;DHT22;37913;48.370;10.930;2023-03-01T11:12:53;16.90;68.30
13256;DHT22;37913;48.370;10.930;2023-03-01T11:15:26;16.60;67.60
13256;DHT22;37913;48.370;10.930;2023-03-01T11:17:53;15.30;68.50
13256;DHT22;37913;48.370;10.930;2023-03-01T11:20:25;15.80;69.30
13256;DHT22;37913;48.370;10.930;2023-03-01T11:22:54;15.20;68.50
13256;DHT22;37913;48.370;10.930;2023-03-01T11:25:25;14.10;71.30
13256;DHT22;37913;48.370;10.930;2023-03-01T11:27:55;14.10;70.70
13256;DHT22;37913;48.370;10.930;2023-03-01T11:30:25;14.20;69.60
13256;DHT22;37913;48.370;10.930;2023-03-01T11:33:03;13.80;70.70
13256;DHT22;37913;48.370;10.930;2023-03-01T11:35:35;14.80;69.50
13256;DHT22;37913;48.370;10.930;2023-03-01T11:38:12;17.00;68.40
13256;DHT22;37913;48.370;10.930;2023-03-01T11:40:45;17.10;66.30
13256;DHT22;37913;48.370;10.930;2023-03-01T11:43:21;16.30;65.90
13256;DHT22;37913;48.370;10.930;2023-03-01T11:48:53;17.20;65.20
13256;DHT22;37913;48.370;10.930;2023-03-01T11:51:37;17.20;65.80
13256;DHT22;37913;48.370;10.930;2023-03-01T11:54:17;17.00;66.30
13256;DHT22;37913;48.370;10.930;2023-03-01T11:56:52;17.50;65.70
13256;DHT22;37913;48.370;10.930;2023-03-01T11:59:47;18.60;64.20
13256;DHT22;37913;48.370;10.930;2023-03-01T12:05:37;18.90;63.10
13256;DHT22;37913;48.370;10.930;2023-03-01T12:08:13;20.70;60.30
13256;DHT22;37913;48.370;10.930;2023-03-01T12:10:48;18.00;59.80
13256;DHT22;37913;48.370;10.930;2023-03-01T12:13:38;18.40;59.70
13256;DHT22;37913;48.370;10.930;2023-03-01T12:16:37;19.90;58.70
13256;DHT22;37913;48.370;10.930;2023-03-01T12:19:31;18.40;59.10
13256;DHT22;37913;48.370;10.930;2023-03-01T12:22:20;17.30;60.90
13256;DHT22;37913;48.370;10.930;2023-03-01T12:25:16;17.50;60.30
13256;DHT22;37913;48.370;10.930;2023-03-01T12:28:09;18.00;59.10
13256;DHT22;37913;48.370;10.930;2023-03-01T12:30:59;16.10;61.10
13256;DHT22;37913;48.370;10.930;2023-03-01T12:33:39;18.60;59.50
13256;DHT22;37913;48.370;10.930;2023-03-01T12:39:16;19.80;58.10
13256;DHT22;37913;48.370;10.930;2023-03-01T12:41:55;19.20;58.10
13256;DHT22;37913;48.370;10.930;2023-03-01T12:44:45;16.50;60.30
13256;DHT22;37913;48.370;10.930;2023-03-01T12:47:25;19.80;59.60
13256;DHT22;37913;48.370;10.930;2023-03-01T12:49:57;21.80;57.70
13256;DHT22;37913;48.370;10.930;2023-03-01T12:52:31;22.90;55.20
13256;DHT22;37913;48.370;10.930;2023-03-01T12:55:01;22.30;55.20
13256;DHT22;37913;48.370;10.930;2023-03-01T12:57:33;21.00;54.90
13256;DHT22;37913;48.370;10.930;2023-03-01T13:00:17;23.30;55.30
13256;DHT22;37913;48.370;10.930;2023-03-01T13:02:50;24.60;52.40
13256;DHT22;37913;48.370;10.930;2023-03-01T13:05:37;20.00;54.90
13256;DHT22;37913;48.370;10.930;2023-03-01T13:08:14;19.50;56.20
13256;DHT22;37913;48.370;10.930;2023-03-01T13:10:46;19.50;55.90
13256;DHT22;37913;48.370;10.930;2023-03-01T13:13:20;18.80;55.60
13256;DHT22;37913;48.370;10.930;2023-03-01T13:15:47;16.60;57.70
13256;DHT22;37913;48.370;10.930;2023-03-01T13:18:33;17.10;57.80
13256;DHT22;37913;48.370;10.930;2023-03-01T13:21:04;17.90;58.30
13256;DHT22;37913;48.370;10.930;2023-03-01T13:23:34;18.30;57.20
13256;DHT22;37913;48.370;10.930;2023-03-01T13:26:08;16.40;58.30
13256;DHT22;37913;48.370;10.930;2023-03-01T13:28:49;16.20;60.00
13256;DHT22;37913;48.370;10.930;2023-03-01T13:34:44;15.20;60.60
13256;DHT22;37913;48.370;10.930;2023-03-01T13:37:20;15.50;60.90
13256;DHT22;37913;48.370;10.930;2023-03-01T13:39:47;15.70;61.50
13256;DHT22;37913;48.370;10.930;2023-03-01T13:42:39;15.60;62.00
13256;DHT22;37913;48.370;10.930;2023-03-01T13:45:24;16.80;60.30
13256;DHT22;37913;48.370;10.930;2023-03-01T13:47:56;17.10;59.60
13256;DHT22;37913;48.370;10.930;2023-03-01T13:50:27;16.60;59.70
13256;DHT22;37913;48.370;10.930;2023-03-01T13:52:58;17.10;60.70
13256;DHT22;37913;48.370;10.930;2023-03-01T13:55:32;16.40;60.40
13256;DHT22;37913;48.370;10.930;2023-03-01T13:58:04;17.80;59.80
13256;DHT22;37913;48.370;10.930;2023-03-01T14:00:34;17.40;59.50
13256;DHT22;37913;48.370;10.930;2023-03-01T14:03:10;16.90;60.30
13256;DHT22;37913;48.370;10.930;2023-03-01T14:05:39;15.40;61.90
13256;DHT22;37913;48.370;10.930;2023-03-01T14:08:20;16.50;62.00
13256;DHT22;37913;48.370;10.930;2023-03-01T14:11:15;17.30;60.50
13256;DHT22;37913;48.370;10.930;2023-03-01T14:14:08;18.10;59.50
13256;DHT22;37913;48.370;10.930;2023-03-01T14:16:46;17.60;59.20
13256;DHT22;37913;48.370;10.930;2023-03-01T14:19:17;15.20;61.40
13256;DHT22;37913;48.370;10.930;2023-03-01T14:21:46;16.20;61.70
13256;DHT22;37913;48.370;10.930;2023-03-01T14:24:21;17.50;60.20
13256;DHT22;37913;48.370;10.930;2023-03-01T14:26:49;16.60;60.10
13256;DHT22;37913;48.370;10.930;2023-03-01T14:29:33;15.50;62.10
13256;DHT22;37913;48.370;10.930;2023-03-01T14:32:17;16.20;63.10
13256;DHT22;37913;48.370;10.930;2023-03-01T14:34:46;16.50;62.60
13256;DHT22;37913;48.370;10.930;2023-03-01T14:37:22;16.80;61.60
13256;DHT22;37913;48.370;10.930;2023-03-01T14:39:51;16.50;61.60
13256;DHT22;37913;48.370;10.930;2023-03-01T14:42:19;16.20;62.40
13256;DHT22;37913;48.370;10.930;2023-03-01T14:44:49;16.50;62.10
13256;DHT22;37913;48.370;10.930;2023-03-01T14:47:26;16.30;61.40
13256;DHT22;37913;48.370;10.930;2023-03-01T14:49:58;14.80;64.00
13256;DHT22;37913;48.370;10.930;2023-03-01T14:52:32;13.60;66.30
13256;DHT22;37913;48.370;10.930;2023-03-01T14:55:05;14.10;66.50
13256;DHT22;37913;48.370;10.930;2023-03-01T14:57:33;15.10;64.90
13256;DHT22;37913;48.370;10.930;2023-03-01T15:00:02;15.30;64.50
13256;DHT22;37913;48.370;10.930;2023-03-01T15:02:31;15.90;64.30
13256;DHT22;37913;48.370;10.930;2023-03-01T15:05:01;14.60;64.30
13256;DHT22;37913;48.370;10.930;2023-03-01T15:07:31;14.00;67.80
13256;DHT22;37913;48.370;10.930;2023-03-01T15:09:59;14.20;66.70
13256;DHT22;37913;48.370;10.930;2023-03-01T15:12:39;14.50;66.70
13256;DHT22;37913;48.370;10.930;2023-03-01T15:15:37;13.40;67.70
13256;DHT22;37913;48.370;10.930;2023-03-01T15:18:16;12.10;70.90
13256;DHT22;37913;48.370;10.930;2023-03-01T15:20:44;11.80;73.70
13256;DHT22;37913;48.370;10.930;2023-03-01T15:23:20;11.30;74.80
13256;DHT22;37913;48.370;10.930;2023-03-01T15:25:48;11.10;77.50
13256;DHT22;37913;48.370;10.930;2023-03-01T15:28:24;10.50;80.10
13256;DHT22;37913;48.370;10.930;2023-03-01T15:30:55;9.40;86.30
13256;DHT22;37913;48.370;10.930;2023-03-01T15:33:33;9.10;89.00
13256;DHT22;37913;48.370;10.930;2023-03-01T15:36:02;8.80;90.50
13256;DHT22;37913;48.370;10.930;2023-03-01T15:38:32;8.40;91.20
13256;DHT22;37913;48.370;10.930;2023-03-01T15:41:01;7.90;92.90
13256;DHT22;37913;48.370;10.930;2023-03-01T15:43:42;7.70;94.00
13256;DHT22;37913;48.370;10.930;2023-03-01T15:46:18;7.50;94.60
13256;DHT22;37913;48.370;10.930;2023-03-01T15:48:46;7.40;95.40
13256;DHT22;37913;48.370;10.930;2023-03-01T15:51:15;7.20;95.80
13256;DHT22;37913;48.370;10.930;2023-03-01T15:53:47;6.90;96.40
13256;DHT22;37913;48.370;10.930;2023-03-01T15:56:15;6.80;97.00
13256;DHT22;37913;48.370;10.930;2023-03-01T15:58:43;6.70;97.40
13256;DHT22;37913;48.370;10.930;2023-03-01T16:01:13;6.70;97.80